sensor_id;sensor_type;location;lat;lon;timestamp;P1;durP1;ratioP1;P2;durP2;ratioP2
46455;SDS011;32154;47.160;8.120;2022-08-05T00:03:10;2.92;;;2.20;;
46455;SDS011;32154;47.160;8.120;2022-08-05T00:08:16;3.85;;;2.45;;
46455;SDS011;32154;47.160;8.120;2022-08-05T00:13:54;3.20;;;2.17;;
46455;SDS011;32154;47.160;8.120;2022-08-05T00:19:00;3.13;;;2.00;;
46455;SDS011;32154;47.160;8.120;2022-08-05T00:24:02;2.83;;;1.75;;
46455;SDS011;32154;47.160;8.120;2022-08-05T00:29:14;2.53;;;2.08;;
46455;SDS011;32154;47.160;8.120;2022-08-05T00:34:20;2.63;;;1.75;;
46455;SDS011;32154;47.160;8.120;2022-08-05T00:39:45;3.03;;;1.95;;
46455;SDS011;32154;47.160;8.120;2022-08-05T00:50:17;1.50;;;1.40;;
46455;SDS011;32154;47.160;8.120;2022-08-05T00:55:41;2.67;;;1.33;;
46455;SDS011;32154;47.160;8.120;2022-08-05T01:01:03;2.10;;;1.65;;
46455;SDS011;32154;47.160;8.120;2022-08-05T01:06:09;2.22;;;1.48;;
46455;SDS011;32154;47.160;8.120;2022-08-05T01:11:34;2.20;;;1.20;;
46455;SDS011;32154;47.160;8.120;2022-08-05T01:16:48;2.72;;;1.40;;
46455;SDS011;32154;47.160;8.120;2022-08-05T01:33:15;2.00;;;1.20;;
46455;SDS011;32154;47.160;8.120;2022-08-05T01:43:49;1.40;;;1.15;;
46455;SDS011;32154;47.160;8.120;2022-08-05T01:48:53;1.77;;;1.50;;
46455;SDS011;32154;47.160;8.120;2022-08-05T01:53:58;1.23;;;1.00;;
46455;SDS011;32154;47.160;8.120;2022-08-05T01:59:06;1.13;;;0.98;;
46455;SDS011;32154;47.160;8.120;2022-08-05T02:04:29;1.95;;;0.75;;
46455;SDS011;32154;47.160;8.120;2022-08-05T02:09:41;2.30;;;1.50;;
46455;SDS011;32154;47.160;8.120;2022-08-05T02:14:48;1.75;;;0.88;;
46455;SDS011;32154;47.160;8.120;2022-08-05T02:19:58;2.55;;;0.82;;
46455;SDS011;32154;47.160;8.120;2022-08-05T02:25:05;1.55;;;0.98;;
46455;SDS011;32154;47.160;8.120;2022-08-05T02:30:46;2.05;;;0.82;;
46455;SDS011;32154;47.160;8.120;2022-08-05T02:41:28;2.63;;;0.88;;
46455;SDS011;32154;47.160;8.120;2022-08-05T02:46:54;1.25;;;1.13;;
46455;SDS011;32154;47.160;8.120;2022-08-05T02:52:03;1.73;;;0.90;;
46455;SDS011;32154;47.160;8.120;2022-08-05T02:57:15;1.98;;;1.48;;
46455;SDS011;32154;47.160;8.120;2022-08-05T03:02:40;1.60;;;0.80;;
46455;SDS011;32154;47.160;8.120;2022-08-05T03:08:03;0.98;;;0.70;;
46455;SDS011;32154;47.160;8.120;2022-08-05T03:13:13;1.40;;;0.88;;
46455;SDS011;32154;47.160;8.120;2022-08-05T03:18:20;1.45;;;0.82;;
46455;SDS011;32154;47.160;8.120;2022-08-05T03:23:35;1.17;;;1.00;;
46455;SDS011;32154;47.160;8.120;2022-08-05T03:28:45;1.38;;;1.00;;
46455;SDS011;32154;47.160;8.120;2022-08-05T03:33:50;2.83;;;0.90;;
46455;SDS011;32154;47.160;8.120;2022-08-05T03:38:54;1.45;;;1.27;;
46455;SDS011;32154;47.160;8.120;2022-08-05T03:43:58;2.20;;;1.17;;
46455;SDS011;32154;47.160;8.120;2022-08-05T03:49:12;2.28;;;1.33;;
46455;SDS011;32154;47.160;8.120;2022-08-05T03:54:20;3.10;;;1.20;;
46455;SDS011;32154;47.160;8.120;2022-08-05T03:59:59;1.92;;;1.23;;
46455;SDS011;32154;47.160;8.120;2022-08-05T04:05:26;2.03;;;1.27;;
46455;SDS011;32154;47.160;8.120;2022-08-05T04:10:34;3.50;;;1.17;;
46455;SDS011;32154;47.160;8.120;2022-08-05T04:15:39;1.35;;;0.70;;
46455;SDS011;32154;47.160;8.120;2022-08-05T04:21:04;1.48;;;1.20;;
46455;SDS011;32154;47.160;8.120;2022-08-05T04:26:07;4.22;;;3.00;;
46455;SDS011;32154;47.160;8.120;2022-08-05T04:31:14;2.72;;;1.98;;
46455;SDS011;32154;47.160;8.120;2022-08-05T04:36:17;10.73;;;2.00;;
46455;SDS011;32154;47.160;8.120;2022-08-05T04:41:44;3.35;;;1.85;;
46455;SDS011;32154;47.160;8.120;2022-08-05T04:46:49;2.30;;;1.52;;
46455;SDS011;32154;47.160;8.120;2022-08-05T04:51:53;4.18;;;2.17;;
46455;SDS011;32154;47.160;8.120;2022-08-05T05:02:03;2.70;;;1.70;;
46455;SDS011;32154;47.160;8.120;2022-08-05T05:07:29;4.75;;;2.80;;
46455;SDS011;32154;47.160;8.120;2022-08-05T05:12:54;2.35;;;1.30;;
46455;SDS011;32154;47.160;8.120;2022-08-05T05:18:00;1.88;;;1.30;;
46455;SDS011;32154;47.160;8.120;2022-08-05T05:23:03;2.55;;;1.48;;
46455;SDS011;32154;47.160;8.120;2022-08-05T05:28:27;1.67;;;1.48;;
46455;SDS011;32154;47.160;8.120;2022-08-05T05:33:29;2.75;;;1.70;;
46455;SDS011;32154;47.160;8.120;2022-08-05T05:38:57;2.30;;;1.50;;
46455;SDS011;32154;47.160;8.120;2022-08-05T05:44:01;2.88;;;2.17;;
46455;SDS011;32154;47.160;8.120;2022-08-05T05:49:24;2.97;;;2.25;;
46455;SDS011;32154;47.160;8.120;2022-08-05T05:54:30;2.67;;;1.70;;
46455;SDS011;32154;47.160;8.120;2022-08-05T05:59:51;2.95;;;2.08;;
46455;SDS011;32154;47.160;8.120;2022-08-05T06:04:55;2.28;;;1.40;;
46455;SDS011;32154;47.160;8.120;2022-08-05T06:10:18;3.67;;;2.03;;
46455;SDS011;32154;47.160;8.120;2022-08-05T06:15:24;8.45;;;1.50;;
46455;SDS011;32154;47.160;8.120;2022-08-05T06:20:48;2.08;;;1.30;;
46455;SDS011;32154;47.160;8.120;2022-08-05T06:26:13;3.60;;;1.80;;
46455;SDS011;32154;47.160;8.120;2022-08-05T06:31:26;7.03;;;1.75;;
46455;SDS011;32154;47.160;8.120;2022-08-05T06:36:32;2.60;;;1.93;;
46455;SDS011;32154;47.160;8.120;2022-08-05T06:42:15;1.55;;;1.15;;
46455;SDS011;32154;47.160;8.120;2022-08-05T06:53:07;1.48;;;1.38;;
46455;SDS011;32154;47.160;8.120;2022-08-05T06:58:23;1.63;;;1.52;;
46455;SDS011;32154;47.160;8.120;2022-08-05T07:03:37;2.40;;;1.58;;
46455;SDS011;32154;47.160;8.120;2022-08-05T07:08:59;4.68;;;1.83;;
46455;SDS011;32154;47.160;8.120;2022-08-05T07:14:29;2.08;;;1.45;;
46455;SDS011;32154;47.160;8.120;2022-08-05T07:19:35;2.28;;;0.98;;
46455;SDS011;32154;47.160;8.120;2022-08-05T07:25:19;1.17;;;1.00;;
46455;SDS011;32154;47.160;8.120;2022-08-05T07:30:41;3.13;;;1.20;;
46455;SDS011;32154;47.160;8.120;2022-08-05T07:35:52;2.60;;;1.30;;
46455;SDS011;32154;47.160;8.120;2022-08-05T07:41:15;1.92;;;0.98;;
46455;SDS011;32154;47.160;8.120;2022-08-05T07:46:39;4.43;;;1.25;;
46455;SDS011;32154;47.160;8.120;2022-08-05T07:52:08;1.55;;;1.17;;
46455;SDS011;32154;47.160;8.120;2022-08-05T07:57:10;2.63;;;1.25;;
46455;SDS011;32154;47.160;8.120;2022-08-05T08:02:35;3.88;;;1.30;;
46455;SDS011;32154;47.160;8.120;2022-08-05T08:08:22;5.10;;;2.53;;
46455;SDS011;32154;47.160;8.120;2022-08-05T08:13:30;4.45;;;1.67;;
46455;SDS011;32154;47.160;8.120;2022-08-05T08:19:02;2.03;;;1.25;;
46455;SDS011;32154;47.160;8.120;2022-08-05T08:24:10;2.63;;;0.98;;
46455;SDS011;32154;47.160;8.120;2022-08-05T08:29:33;3.08;;;1.27;;
46455;SDS011;32154;47.160;8.120;2022-08-05T08:34:55;3.38;;;1.70;;
46455;SDS011;32154;47.160;8.120;2022-08-05T08:39:58;1.60;;;1.23;;
46455;SDS011;32154;47.160;8.120;2022-08-05T08:45:04;2.13;;;1.83;;
46455;SDS011;32154;47.160;8.120;2022-08-05T08:50:43;3.38;;;1.35;;
46455;SDS011;32154;47.160;8.120;2022-08-05T08:56:12;2.13;;;1.48;;
46455;SDS011;32154;47.160;8.120;2022-08-05T09:01:32;1.58;;;1.30;;
46455;SDS011;32154;47.160;8.120;2022-08-05T09:06:42;2.53;;;1.30;;
46455;SDS011;32154;47.160;8.120;2022-08-05T09:11:51;2.97;;;1.30;;
46455;SDS011;32154;47.160;8.120;2022-08-05T09:17:22;2.67;;;1.80;;
46455;SDS011;32154;47.160;8.120;2022-08-05T09:28:21;2.05;;;1.65;;
46455;SDS011;32154;47.160;8.120;2022-08-05T09:39:12;1.80;;;1.20;;
46455;SDS011;32154;47.160;8.120;2022-08-05T09:44:44;1.50;;;1.25;;
46455;SDS011;32154;47.160;8.120;2022-08-05T09:49:57;2.03;;;1.35;;
46455;SDS011;32154;47.160;8.120;2022-08-05T09:55:22;1.80;;;1.50;;
46455;SDS011;32154;47.160;8.120;2022-08-05T10:00:53;1.60;;;1.27;;
46455;SDS011;32154;47.160;8.120;2022-08-05T10:06:24;4.03;;;1.38;;
46455;SDS011;32154;47.160;8.120;2022-08-05T10:11:48;4.18;;;2.10;;
46455;SDS011;32154;47.160;8.120;2022-08-05T10:16:54;2.25;;;1.15;;
46455;SDS011;32154;47.160;8.120;2022-08-05T10:22:01;2.15;;;1.40;;
46455;SDS011;32154;47.160;8.120;2022-08-05T10:27:09;1.77;;;1.23;;
46455;SDS011;32154;47.160;8.120;2022-08-05T10:32:52;1.80;;;1.40;;
46455;SDS011;32154;47.160;8.120;2022-08-05T10:38:03;1.27;;;1.13;;
46455;SDS011;32154;47.160;8.120;2022-08-05T10:43:17;1.88;;;1.42;;
46455;SDS011;32154;47.160;8.120;2022-08-05T10:48:43;1.48;;;1.00;;
46455;SDS011;32154;47.160;8.120;2022-08-05T10:53:59;2.00;;;1.35;;
46455;SDS011;32154;47.160;8.120;2022-08-05T11:05:02;1.90;;;1.45;;
46455;SDS011;32154;47.160;8.120;2022-08-05T11:10:07;2.03;;;1.50;;
46455;SDS011;32154;47.160;8.120;2022-08-05T11:15:33;2.22;;;1.20;;
46455;SDS011;32154;47.160;8.120;2022-08-05T11:21:30;2.15;;;1.55;;
46455;SDS011;32154;47.160;8.120;2022-08-05T11:27:27;1.73;;;1.60;;
46455;SDS011;32154;47.160;8.120;2022-08-05T11:39:13;4.72;;;2.10;;
46455;SDS011;32154;47.160;8.120;2022-08-05T11:44:23;1.65;;;1.40;;
46455;SDS011;32154;47.160;8.120;2022-08-05T11:49:56;1.77;;;1.45;;
46455;SDS011;32154;47.160;8.120;2022-08-05T11:55:03;2.75;;;1.38;;
46455;SDS011;32154;47.160;8.120;2022-08-05T12:00:26;1.67;;;1.27;;
46455;SDS011;32154;47.160;8.120;2022-08-05T12:05:34;2.70;;;1.42;;
46455;SDS011;32154;47.160;8.120;2022-08-05T12:10:41;1.52;;;1.10;;
46455;SDS011;32154;47.160;8.120;2022-08-05T12:16:16;1.90;;;1.27;;
46455;SDS011;32154;47.160;8.120;2022-08-05T12:21:21;2.70;;;1.23;;
46455;SDS011;32154;47.160;8.120;2022-08-05T12:26:31;1.70;;;1.30;;
46455;SDS011;32154;47.160;8.120;2022-08-05T12:31:39;2.50;;;1.17;;
46455;SDS011;32154;47.160;8.120;2022-08-05T12:37:39;2.35;;;1.75;;
46455;SDS011;32154;47.160;8.120;2022-08-05T12:43:06;1.88;;;1.30;;
46455;SDS011;32154;47.160;8.120;2022-08-05T12:48:37;1.88;;;1.35;;
46455;SDS011;32154;47.160;8.120;2022-08-05T12:53:47;2.55;;;1.83;;
46455;SDS011;32154;47.160;8.120;2022-08-05T13:04:44;1.60;;;1.30;;
46455;SDS011;32154;47.160;8.120;2022-08-05T13:09:57;1.58;;;1.40;;
46455;SDS011;32154;47.160;8.120;2022-08-05T13:15:02;2.05;;;1.38;;
46455;SDS011;32154;47.160;8.120;2022-08-05T13:20:13;2.47;;;1.70;;
46455;SDS011;32154;47.160;8.120;2022-08-05T13:25:24;2.85;;;1.77;;
46455;SDS011;32154;47.160;8.120;2022-08-05T13:30:47;2.97;;;1.58;;
46455;SDS011;32154;47.160;8.120;2022-08-05T13:35:53;1.67;;;1.50;;
46455;SDS011;32154;47.160;8.120;2022-08-05T13:41:20;2.92;;;2.08;;
46455;SDS011;32154;47.160;8.120;2022-08-05T13:46:37;2.25;;;1.83;;
46455;SDS011;32154;47.160;8.120;2022-08-05T13:52:09;3.20;;;1.60;;
46455;SDS011;32154;47.160;8.120;2022-08-05T13:57:15;2.60;;;1.90;;
46455;SDS011;32154;47.160;8.120;2022-08-05T14:02:18;3.90;;;1.90;;
46455;SDS011;32154;47.160;8.120;2022-08-05T14:07:30;2.35;;;1.40;;
46455;SDS011;32154;47.160;8.120;2022-08-05T14:13:20;2.20;;;1.98;;
46455;SDS011;32154;47.160;8.120;2022-08-05T14:18:42;2.63;;;1.83;;
46455;SDS011;32154;47.160;8.120;2022-08-05T14:24:15;2.08;;;1.80;;
46455;SDS011;32154;47.160;8.120;2022-08-05T14:29:21;2.78;;;2.08;;
46455;SDS011;32154;47.160;8.120;2022-08-05T14:34:45;1.83;;;1.52;;
46455;SDS011;32154;47.160;8.120;2022-08-05T14:39:54;2.45;;;2.25;;
46455;SDS011;32154;47.160;8.120;2022-08-05T14:45:01;1.77;;;1.50;;
46455;SDS011;32154;47.160;8.120;2022-08-05T14:50:23;3.40;;;1.90;;
46455;SDS011;32154;47.160;8.120;2022-08-05T14:56:07;3.60;;;1.77;;
46455;SDS011;32154;47.160;8.120;2022-08-05T15:01:19;2.45;;;1.90;;
46455;SDS011;32154;47.160;8.120;2022-08-05T15:06:56;2.70;;;1.80;;
46455;SDS011;32154;47.160;8.120;2022-08-05T15:11:59;3.28;;;1.95;;
46455;SDS011;32154;47.160;8.120;2022-08-05T15:17:05;3.13;;;2.22;;
46455;SDS011;32154;47.160;8.120;2022-08-05T15:22:28;2.17;;;1.98;;
46455;SDS011;32154;47.160;8.120;2022-08-05T15:27:49;2.65;;;2.22;;
46455;SDS011;32154;47.160;8.120;2022-08-05T15:32:55;3.35;;;2.17;;
46455;SDS011;32154;47.160;8.120;2022-08-05T15:38:16;2.80;;;2.10;;
46455;SDS011;32154;47.160;8.120;2022-08-05T15:43:37;2.38;;;2.00;;
46455;SDS011;32154;47.160;8.120;2022-08-05T15:49:06;2.95;;;2.40;;
46455;SDS011;32154;47.160;8.120;2022-08-05T15:54:12;2.40;;;2.10;;
46455;SDS011;32154;47.160;8.120;2022-08-05T15:59:16;2.47;;;2.28;;
46455;SDS011;32154;47.160;8.120;2022-08-05T16:04:47;2.95;;;2.30;;
46455;SDS011;32154;47.160;8.120;2022-08-05T16:09:53;2.95;;;2.35;;
46455;SDS011;32154;47.160;8.120;2022-08-05T16:15:36;2.47;;;2.28;;
46455;SDS011;32154;47.160;8.120;2022-08-05T16:20:57;2.50;;;2.13;;
46455;SDS011;32154;47.160;8.120;2022-08-05T16:26:09;2.40;;;2.17;;
46455;SDS011;32154;47.160;8.120;2022-08-05T16:31:13;4.85;;;1.92;;
46455;SDS011;32154;47.160;8.120;2022-08-05T16:36:16;5.03;;;2.28;;
46455;SDS011;32154;47.160;8.120;2022-08-05T16:41:31;4.32;;;2.40;;
46455;SDS011;32154;47.160;8.120;2022-08-05T16:46:54;3.03;;;2.45;;
46455;SDS011;32154;47.160;8.120;2022-08-05T16:52:24;3.00;;;2.20;;
46455;SDS011;32154;47.160;8.120;2022-08-05T16:57:34;2.30;;;2.10;;
46455;SDS011;32154;47.160;8.120;2022-08-05T17:03:19;6.00;;;2.58;;
46455;SDS011;32154;47.160;8.120;2022-08-05T17:08:22;2.55;;;1.92;;
46455;SDS011;32154;47.160;8.120;2022-08-05T17:13:44;2.95;;;2.17;;
46455;SDS011;32154;47.160;8.120;2022-08-05T17:18:47;6.30;;;2.78;;
46455;SDS011;32154;47.160;8.120;2022-08-05T17:23:55;2.85;;;2.53;;
46455;SDS011;32154;47.160;8.120;2022-08-05T17:29:08;3.63;;;2.38;;
46455;SDS011;32154;47.160;8.120;2022-08-05T17:34:11;3.67;;;2.65;;
46455;SDS011;32154;47.160;8.120;2022-08-05T17:39:18;3.05;;;2.50;;
46455;SDS011;32154;47.160;8.120;2022-08-05T17:44:31;3.72;;;3.20;;
46455;SDS011;32154;47.160;8.120;2022-08-05T17:49:36;3.10;;;2.47;;
46455;SDS011;32154;47.160;8.120;2022-08-05T17:55:01;4.45;;;2.40;;
46455;SDS011;32154;47.160;8.120;2022-08-05T18:00:22;3.80;;;2.40;;
46455;SDS011;32154;47.160;8.120;2022-08-05T18:16:03;4.05;;;2.33;;
46455;SDS011;32154;47.160;8.120;2022-08-05T18:32:57;3.67;;;2.17;;
46455;SDS011;32154;47.160;8.120;2022-08-05T18:38:05;4.15;;;1.65;;
46455;SDS011;32154;47.160;8.120;2022-08-05T18:43:28;3.33;;;1.90;;
46455;SDS011;32154;47.160;8.120;2022-08-05T18:48:38;4.80;;;2.45;;
46455;SDS011;32154;47.160;8.120;2022-08-05T18:53:42;3.03;;;2.50;;
46455;SDS011;32154;47.160;8.120;2022-08-05T18:58:52;4.95;;;2.10;;
46455;SDS011;32154;47.160;8.120;2022-08-05T19:04:02;2.90;;;2.60;;
46455;SDS011;32154;47.160;8.120;2022-08-05T19:09:24;3.78;;;2.50;;
46455;SDS011;32154;47.160;8.120;2022-08-05T19:14:27;2.95;;;2.20;;
46455;SDS011;32154;47.160;8.120;2022-08-05T19:19:50;3.35;;;1.55;;
46455;SDS011;32154;47.160;8.120;2022-08-05T19:25:00;3.35;;;1.77;;
46455;SDS011;32154;47.160;8.120;2022-08-05T19:30:29;3.47;;;2.07;;
46455;SDS011;32154;47.160;8.120;2022-08-05T19:35:31;1.85;;;1.65;;
46455;SDS011;32154;47.160;8.120;2022-08-05T19:40:53;1.63;;;1.40;;
46455;SDS011;32154;47.160;8.120;2022-08-05T19:45:58;3.90;;;2.40;;
46455;SDS011;32154;47.160;8.120;2022-08-05T19:51:03;4.70;;;2.30;;
46455;SDS011;32154;47.160;8.120;2022-08-05T19:56:06;2.70;;;2.33;;
46455;SDS011;32154;47.160;8.120;2022-08-05T20:01:29;2.90;;;2.25;;
46455;SDS011;32154;47.160;8.120;2022-08-05T20:06:54;3.50;;;2.38;;
46455;SDS011;32154;47.160;8.120;2022-08-05T20:11:58;3.00;;;1.90;;
46455;SDS011;32154;47.160;8.120;2022-08-05T20:17:03;3.72;;;2.30;;
46455;SDS011;32154;47.160;8.120;2022-08-05T20:22:06;2.42;;;2.22;;
46455;SDS011;32154;47.160;8.120;2022-08-05T20:27:28;3.92;;;2.53;;
46455;SDS011;32154;47.160;8.120;2022-08-05T20:32:46;3.72;;;2.10;;
46455;SDS011;32154;47.160;8.120;2022-08-05T20:37:49;4.05;;;2.42;;
46455;SDS011;32154;47.160;8.120;2022-08-05T20:43:11;2.95;;;2.15;;
46455;SDS011;32154;47.160;8.120;2022-08-05T20:48:15;3.10;;;2.08;;
46455;SDS011;32154;47.160;8.120;2022-08-05T20:53:17;3.58;;;2.28;;
46455;SDS011;32154;47.160;8.120;2022-08-05T20:58:58;2.92;;;1.95;;
46455;SDS011;32154;47.160;8.120;2022-08-05T21:04:38;4.63;;;2.65;;
46455;SDS011;32154;47.160;8.120;2022-08-05T21:09:40;5.03;;;2.75;;
46455;SDS011;32154;47.160;8.120;2022-08-05T21:14:54;5.18;;;2.75;;
46455;SDS011;32154;47.160;8.120;2022-08-05T21:19:59;3.10;;;1.77;;
46455;SDS011;32154;47.160;8.120;2022-08-05T21:25:10;3.60;;;1.80;;
46455;SDS011;32154;47.160;8.120;2022-08-05T21:30:31;3.83;;;3.20;;
46455;SDS011;32154;47.160;8.120;2022-08-05T21:35:35;3.95;;;3.30;;
46455;SDS011;32154;47.160;8.120;2022-08-05T21:40:57;6.28;;;2.38;;
46455;SDS011;32154;47.160;8.120;2022-08-05T21:46:19;4.88;;;2.63;;
46455;SDS011;32154;47.160;8.120;2022-08-05T21:51:22;3.25;;;2.63;;
46455;SDS011;32154;47.160;8.120;2022-08-05T21:56:45;3.33;;;2.47;;
46455;SDS011;32154;47.160;8.120;2022-08-05T22:01:57;3.05;;;2.25;;
46455;SDS011;32154;47.160;8.120;2022-08-05T22:07:00;4.03;;;2.83;;
46455;SDS011;32154;47.160;8.120;2022-08-05T22:12:03;4.07;;;3.35;;
46455;SDS011;32154;47.160;8.120;2022-08-05T22:17:11;2.83;;;2.10;;
46455;SDS011;32154;47.160;8.120;2022-08-05T22:22:16;4.82;;;3.33;;
46455;SDS011;32154;47.160;8.120;2022-08-05T22:27:31;4.72;;;3.58;;
46455;SDS011;32154;47.160;8.120;2022-08-05T22:32:54;4.28;;;2.60;;
46455;SDS011;32154;47.160;8.120;2022-08-05T22:38:04;4.28;;;3.00;;
46455;SDS011;32154;47.160;8.120;2022-08-05T22:43:10;4.53;;;2.90;;
46455;SDS011;32154;47.160;8.120;2022-08-05T22:48:13;3.63;;;2.17;;
46455;SDS011;32154;47.160;8.120;2022-08-05T22:53:41;3.75;;;2.80;;
46455;SDS011;32154;47.160;8.120;2022-08-05T22:58:51;3.35;;;2.33;;
46455;SDS011;32154;47.160;8.120;2022-08-05T23:04:14;2.95;;;2.20;;
46455;SDS011;32154;47.160;8.120;2022-08-05T23:09:17;3.40;;;2.20;;
46455;SDS011;32154;47.160;8.120;2022-08-05T23:14:40;5.80;;;2.97;;
46455;SDS011;32154;47.160;8.120;2022-08-05T23:19:44;3.33;;;2.70;;
46455;SDS011;32154;47.160;8.120;2022-08-05T23:24:58;7.10;;;2.65;;
46455;SDS011;32154;47.160;8.120;2022-08-05T23:30:04;3.67;;;2.92;;
46455;SDS011;32154;47.160;8.120;2022-08-05T23:35:11;3.03;;;2.47;;
46455;SDS011;32154;47.160;8.120;2022-08-05T23:40:14;4.63;;;2.70;;
46455;SDS011;32154;47.160;8.120;2022-08-05T23:45:27;5.85;;;2.97;;
46455;SDS011;32154;47.160;8.120;2022-08-05T23:50:33;3.28;;;2.60;;
46455;SDS011;32154;47.160;8.120;2022-08-05T23:55:54;4.80;;;2.85;;
